sensor_id;sensor_type;location;lat;lon;timestamp;temperature;humidity
18392;DHT22;9322;50.932;5.318;2023-08-24T00:00:55;20.80;1.40
18392;DHT22;9322;50.932;5.318;2023-08-24T00:03:21;20.80;1.40
18392;DHT22;9322;50.932;5.318;2023-08-24T00:05:48;20.90;1.40
18392;DHT22;9322;50.932;5.318;2023-08-24T00:08:13;21.00;1.40
18392;DHT22;9322;50.932;5.318;2023-08-24T00:10:42;21.00;1.40
18392;DHT22;9322;50.932;5.318;2023-08-24T00:13:09;21.00;1.40
18392;DHT22;9322;50.932;5.318;2023-08-24T00:15:35;21.00;1.40
18392;DHT22;9322;50.932;5.318;2023-08-24T00:18:02;21.00;1.40
18392;DHT22;9322;50.932;5.318;2023-08-24T00:20:27;21.00;1.40
18392;DHT22;9322;50.932;5.318;2023-08-24T00:22:53;21.00;1.40
18392;DHT22;9322;50.932;5.318;2023-08-24T00:25:19;21.00;1.40
18392;DHT22;9322;50.932;5.318;2023-08-24T00:27:45;20.90;1.40
18392;DHT22;9322;50.932;5.318;2023-08-24T00:30:12;20.80;1.40
18392;DHT22;9322;50.932;5.318;2023-08-24T00:32:37;20.70;1.40
18392;DHT22;9322;50.932;5.318;2023-08-24T00:35:08;20.60;1.40
18392;DHT22;9322;50.932;5.318;2023-08-24T00:37:34;20.50;1.40
18392;DHT22;9322;50.932;5.318;2023-08-24T00:40:00;20.50;1.40
18392;DHT22;9322;50.932;5.318;2023-08-24T00:42:29;20.50;1.40
18392;DHT22;9322;50.932;5.318;2023-08-24T00:44:55;20.40;1.40
18392;DHT22;9322;50.932;5.318;2023-08-24T00:47:21;20.30;1.40
18392;DHT22;9322;50.932;5.318;2023-08-24T00:49:47;20.20;1.40
18392;DHT22;9322;50.932;5.318;2023-08-24T00:52:13;20.10;1.40
18392;DHT22;9322;50.932;5.318;2023-08-24T00:54:39;20.10;1.40
18392;DHT22;9322;50.932;5.318;2023-08-24T00:57:06;20.10;1.40
18392;DHT22;9322;50.932;5.318;2023-08-24T00:59:33;20.10;1.40
18392;DHT22;9322;50.932;5.318;2023-08-24T01:02:00;20.00;1.40
18392;DHT22;9322;50.932;5.318;2023-08-24T01:04:25;20.00;1.40
18392;DHT22;9322;50.932;5.318;2023-08-24T01:06:51;20.00;1.40
18392;DHT22;9322;50.932;5.318;2023-08-24T01:09:18;20.00;1.40
18392;DHT22;9322;50.932;5.318;2023-08-24T01:15:12;20.00;1.40
18392;DHT22;9322;50.932;5.318;2023-08-24T01:17:43;19.90;1.40
18392;DHT22;9322;50.932;5.318;2023-08-24T01:20:10;19.90;1.40
18392;DHT22;9322;50.932;5.318;2023-08-24T01:25:53;20.20;1.40
18392;DHT22;9322;50.932;5.318;2023-08-24T01:28:23;20.30;1.40
18392;DHT22;9322;50.932;5.318;2023-08-24T01:30:49;20.40;1.40
18392;DHT22;9322;50.932;5.318;2023-08-24T01:33:15;20.50;1.40
18392;DHT22;9322;50.932;5.318;2023-08-24T01:35:41;20.50;1.40
18392;DHT22;9322;50.932;5.318;2023-08-24T01:38:07;20.60;1.40
18392;DHT22;9322;50.932;5.318;2023-08-24T01:40:39;20.60;1.40
18392;DHT22;9322;50.932;5.318;2023-08-24T01:43:09;20.50;1.40
18392;DHT22;9322;50.932;5.318;2023-08-24T01:45:35;20.40;1.40
18392;DHT22;9322;50.932;5.318;2023-08-24T01:48:03;20.50;1.40
18392;DHT22;9322;50.932;5.318;2023-08-24T01:50:29;20.40;1.40
18392;DHT22;9322;50.932;5.318;2023-08-24T01:52:56;20.50;1.40
18392;DHT22;9322;50.932;5.318;2023-08-24T01:55:23;20.50;1.40
18392;DHT22;9322;50.932;5.318;2023-08-24T01:57:49;20.50;1.40
18392;DHT22;9322;50.932;5.318;2023-08-24T02:00:15;20.50;1.40
18392;DHT22;9322;50.932;5.318;2023-08-24T02:02:43;20.40;1.40
18392;DHT22;9322;50.932;5.318;2023-08-24T02:05:09;20.30;1.40
18392;DHT22;9322;50.932;5.318;2023-08-24T02:07:35;20.10;1.40
18392;DHT22;9322;50.932;5.318;2023-08-24T02:10:01;20.20;1.40
18392;DHT22;9322;50.932;5.318;2023-08-24T02:12:27;20.10;1.40
18392;DHT22;9322;50.932;5.318;2023-08-24T02:14:53;20.20;1.40
18392;DHT22;9322;50.932;5.318;2023-08-24T02:17:18;20.30;1.40
18392;DHT22;9322;50.932;5.318;2023-08-24T02:19:44;20.30;1.40
18392;DHT22;9322;50.932;5.318;2023-08-24T02:22:09;20.30;1.40
18392;DHT22;9322;50.932;5.318;2023-08-24T02:24:35;20.30;1.40
18392;DHT22;9322;50.932;5.318;2023-08-24T02:27:01;20.20;1.40
18392;DHT22;9322;50.932;5.318;2023-08-24T02:29:26;20.30;1.40
18392;DHT22;9322;50.932;5.318;2023-08-24T02:31:53;20.20;1.40
18392;DHT22;9322;50.932;5.318;2023-08-24T02:34:18;20.30;1.40
18392;DHT22;9322;50.932;5.318;2023-08-24T02:36:44;20.30;1.40
18392;DHT22;9322;50.932;5.318;2023-08-24T02:39:10;20.40;1.40
18392;DHT22;9322;50.932;5.318;2023-08-24T02:41:36;20.20;1.40
18392;DHT22;9322;50.932;5.318;2023-08-24T02:44:02;20.30;1.40
18392;DHT22;9322;50.932;5.318;2023-08-24T02:46:28;20.40;1.40
18392;DHT22;9322;50.932;5.318;2023-08-24T02:48:54;20.40;1.40
18392;DHT22;9322;50.932;5.318;2023-08-24T02:51:23;20.50;1.40
18392;DHT22;9322;50.932;5.318;2023-08-24T02:53:49;20.50;1.40
18392;DHT22;9322;50.932;5.318;2023-08-24T02:56:15;20.50;1.40
18392;DHT22;9322;50.932;5.318;2023-08-24T02:58:41;20.40;1.40
18392;DHT22;9322;50.932;5.318;2023-08-24T03:01:07;20.30;1.40
18392;DHT22;9322;50.932;5.318;2023-08-24T03:03:34;20.10;1.40
18392;DHT22;9322;50.932;5.318;2023-08-24T03:06:06;19.80;1.40
18392;DHT22;9322;50.932;5.318;2023-08-24T03:08:33;19.20;1.40
18392;DHT22;9322;50.932;5.318;2023-08-24T03:11:00;18.90;1.40
18392;DHT22;9322;50.932;5.318;2023-08-24T03:13:26;18.60;1.40
18392;DHT22;9322;50.932;5.318;2023-08-24T03:15:53;18.30;1.40
18392;DHT22;9322;50.932;5.318;2023-08-24T03:18:19;18.30;1.40
18392;DHT22;9322;50.932;5.318;2023-08-24T03:20:47;18.30;1.40
18392;DHT22;9322;50.932;5.318;2023-08-24T03:23:13;18.30;1.40
18392;DHT22;9322;50.932;5.318;2023-08-24T03:25:40;18.40;1.40
18392;DHT22;9322;50.932;5.318;2023-08-24T03:28:07;18.40;1.40
18392;DHT22;9322;50.932;5.318;2023-08-24T03:30:39;18.40;1.40
18392;DHT22;9322;50.932;5.318;2023-08-24T03:33:05;18.50;1.40
18392;DHT22;9322;50.932;5.318;2023-08-24T03:35:31;18.60;1.40
18392;DHT22;9322;50.932;5.318;2023-08-24T03:37:57;18.60;1.40
18392;DHT22;9322;50.932;5.318;2023-08-24T03:40:23;18.70;1.40
18392;DHT22;9322;50.932;5.318;2023-08-24T03:42:49;18.80;1.40
18392;DHT22;9322;50.932;5.318;2023-08-24T03:45:15;18.90;1.40
18392;DHT22;9322;50.932;5.318;2023-08-24T03:47:41;18.90;1.40
18392;DHT22;9322;50.932;5.318;2023-08-24T03:50:07;18.90;1.40
18392;DHT22;9322;50.932;5.318;2023-08-24T03:52:33;18.90;1.40
18392;DHT22;9322;50.932;5.318;2023-08-24T03:54:59;18.80;1.40
18392;DHT22;9322;50.932;5.318;2023-08-24T03:57:24;18.90;1.40
18392;DHT22;9322;50.932;5.318;2023-08-24T03:59:50;19.00;1.40
18392;DHT22;9322;50.932;5.318;2023-08-24T04:02:16;19.10;1.40
18392;DHT22;9322;50.932;5.318;2023-08-24T04:04:43;19.20;1.40
18392;DHT22;9322;50.932;5.318;2023-08-24T04:07:09;19.30;1.40
18392;DHT22;9322;50.932;5.318;2023-08-24T04:09:35;19.30;1.40
18392;DHT22;9322;50.932;5.318;2023-08-24T04:12:00;19.40;1.40
18392;DHT22;9322;50.932;5.318;2023-08-24T04:14:26;19.50;1.40
18392;DHT22;9322;50.932;5.318;2023-08-24T04:16:52;19.40;1.40
18392;DHT22;9322;50.932;5.318;2023-08-24T04:19:18;19.40;1.40
18392;DHT22;9322;50.932;5.318;2023-08-24T04:21:43;19.30;1.40
18392;DHT22;9322;50.932;5.318;2023-08-24T04:24:09;19.40;1.40
18392;DHT22;9322;50.932;5.318;2023-08-24T04:26:35;19.40;1.40
18392;DHT22;9322;50.932;5.318;2023-08-24T04:29:00;19.20;1.40
18392;DHT22;9322;50.932;5.318;2023-08-24T04:31:26;19.20;1.40
18392;DHT22;9322;50.932;5.318;2023-08-24T04:33:52;19.20;1.40
18392;DHT22;9322;50.932;5.318;2023-08-24T04:36:17;19.20;1.40
18392;DHT22;9322;50.932;5.318;2023-08-24T04:38:43;19.20;1.40
18392;DHT22;9322;50.932;5.318;2023-08-24T04:41:09;19.20;1.40
18392;DHT22;9322;50.932;5.318;2023-08-24T04:43:36;19.20;1.40
18392;DHT22;9322;50.932;5.318;2023-08-24T04:46:02;19.20;1.40
18392;DHT22;9322;50.932;5.318;2023-08-24T04:48:28;19.30;1.40
18392;DHT22;9322;50.932;5.318;2023-08-24T04:51:01;19.30;1.40
18392;DHT22;9322;50.932;5.318;2023-08-24T04:53:27;19.30;1.40
18392;DHT22;9322;50.932;5.318;2023-08-24T04:55:53;19.20;1.40
18392;DHT22;9322;50.932;5.318;2023-08-24T04:58:18;19.20;1.40
18392;DHT22;9322;50.932;5.318;2023-08-24T05:00:44;19.20;1.40
18392;DHT22;9322;50.932;5.318;2023-08-24T05:03:10;19.20;1.40
18392;DHT22;9322;50.932;5.318;2023-08-24T05:05:37;19.30;1.40
18392;DHT22;9322;50.932;5.318;2023-08-24T05:08:04;19.30;1.40
18392;DHT22;9322;50.932;5.318;2023-08-24T05:10:35;19.40;1.40
18392;DHT22;9322;50.932;5.318;2023-08-24T05:13:01;19.30;1.40
18392;DHT22;9322;50.932;5.318;2023-08-24T05:15:27;19.30;1.40
18392;DHT22;9322;50.932;5.318;2023-08-24T05:17:53;19.40;1.40
18392;DHT22;9322;50.932;5.318;2023-08-24T05:20:20;19.40;1.40
18392;DHT22;9322;50.932;5.318;2023-08-24T05:22:46;19.30;1.40
18392;DHT22;9322;50.932;5.318;2023-08-24T05:25:12;19.40;1.40
18392;DHT22;9322;50.932;5.318;2023-08-24T05:27:39;19.40;1.40
18392;DHT22;9322;50.932;5.318;2023-08-24T05:30:05;19.50;1.40
18392;DHT22;9322;50.932;5.318;2023-08-24T05:32:31;19.70;1.40
18392;DHT22;9322;50.932;5.318;2023-08-24T05:34:57;20.00;1.40
18392;DHT22;9322;50.932;5.318;2023-08-24T05:37:24;20.30;1.40
18392;DHT22;9322;50.932;5.318;2023-08-24T05:39:50;20.40;1.40
18392;DHT22;9322;50.932;5.318;2023-08-24T05:42:15;20.70;1.40
18392;DHT22;9322;50.932;5.318;2023-08-24T05:44:41;21.00;1.40
18392;DHT22;9322;50.932;5.318;2023-08-24T05:47:07;21.10;1.40
18392;DHT22;9322;50.932;5.318;2023-08-24T05:49:33;21.50;1.40
18392;DHT22;9322;50.932;5.318;2023-08-24T05:51:58;21.70;1.40
18392;DHT22;9322;50.932;5.318;2023-08-24T05:54:24;22.30;1.40
18392;DHT22;9322;50.932;5.318;2023-08-24T05:56:50;22.90;1.40
18392;DHT22;9322;50.932;5.318;2023-08-24T05:59:15;23.50;1.40
18392;DHT22;9322;50.932;5.318;2023-08-24T06:01:41;23.90;1.40
18392;DHT22;9322;50.932;5.318;2023-08-24T06:04:10;24.10;1.40
18392;DHT22;9322;50.932;5.318;2023-08-24T06:06:36;24.50;1.40
18392;DHT22;9322;50.932;5.318;2023-08-24T06:09:03;24.70;1.40
18392;DHT22;9322;50.932;5.318;2023-08-24T06:11:32;24.80;1.40
18392;DHT22;9322;50.932;5.318;2023-08-24T06:13:58;24.50;1.40
18392;DHT22;9322;50.932;5.318;2023-08-24T06:16:24;24.60;1.40
18392;DHT22;9322;50.932;5.318;2023-08-24T06:18:50;24.20;1.40
18392;DHT22;9322;50.932;5.318;2023-08-24T06:21:16;24.00;1.40
18392;DHT22;9322;50.932;5.318;2023-08-24T06:23:42;24.30;1.40
18392;DHT22;9322;50.932;5.318;2023-08-24T06:26:08;25.00;1.40
18392;DHT22;9322;50.932;5.318;2023-08-24T06:28:33;25.50;1.40
18392;DHT22;9322;50.932;5.318;2023-08-24T06:31:00;25.60;1.40
18392;DHT22;9322;50.932;5.318;2023-08-24T06:33:29;26.40;1.40
18392;DHT22;9322;50.932;5.318;2023-08-24T06:35:58;27.40;1.40
18392;DHT22;9322;50.932;5.318;2023-08-24T06:38:24;27.80;1.40
18392;DHT22;9322;50.932;5.318;2023-08-24T06:40:50;28.30;1.40
18392;DHT22;9322;50.932;5.318;2023-08-24T06:43:16;28.70;1.40
18392;DHT22;9322;50.932;5.318;2023-08-24T06:45:41;29.10;1.40
18392;DHT22;9322;50.932;5.318;2023-08-24T06:48:07;29.20;1.40
18392;DHT22;9322;50.932;5.318;2023-08-24T06:50:33;30.40;1.40
18392;DHT22;9322;50.932;5.318;2023-08-24T06:52:59;31.00;1.40
18392;DHT22;9322;50.932;5.318;2023-08-24T06:55:26;31.50;1.40
18392;DHT22;9322;50.932;5.318;2023-08-24T06:57:52;31.60;1.40
18392;DHT22;9322;50.932;5.318;2023-08-24T07:00:19;31.80;1.40
18392;DHT22;9322;50.932;5.318;2023-08-24T07:02:46;32.50;1.40
18392;DHT22;9322;50.932;5.318;2023-08-24T07:05:12;32.60;1.40
18392;DHT22;9322;50.932;5.318;2023-08-24T07:07:38;32.70;1.40
18392;DHT22;9322;50.932;5.318;2023-08-24T07:10:04;32.80;1.40
18392;DHT22;9322;50.932;5.318;2023-08-24T07:12:30;32.50;1.40
18392;DHT22;9322;50.932;5.318;2023-08-24T07:14:56;32.20;1.40
18392;DHT22;9322;50.932;5.318;2023-08-24T07:17:21;31.60;1.40
18392;DHT22;9322;50.932;5.318;2023-08-24T07:19:47;31.20;1.40
18392;DHT22;9322;50.932;5.318;2023-08-24T07:22:13;31.50;1.40
18392;DHT22;9322;50.932;5.318;2023-08-24T07:24:39;31.70;1.40
18392;DHT22;9322;50.932;5.318;2023-08-24T07:27:05;31.20;1.40
18392;DHT22;9322;50.932;5.318;2023-08-24T07:29:31;31.10;1.40
18392;DHT22;9322;50.932;5.318;2023-08-24T07:31:57;31.30;1.40
18392;DHT22;9322;50.932;5.318;2023-08-24T07:34:22;31.30;1.40
18392;DHT22;9322;50.932;5.318;2023-08-24T07:36:49;31.00;1.40
18392;DHT22;9322;50.932;5.318;2023-08-24T07:39:15;30.70;1.40
18392;DHT22;9322;50.932;5.318;2023-08-24T07:41:41;30.50;1.40
18392;DHT22;9322;50.932;5.318;2023-08-24T07:44:07;30.60;1.40
18392;DHT22;9322;50.932;5.318;2023-08-24T07:46:33;30.10;1.40
18392;DHT22;9322;50.932;5.318;2023-08-24T07:48:59;29.90;1.40
18392;DHT22;9322;50.932;5.318;2023-08-24T07:51:25;29.60;1.40
18392;DHT22;9322;50.932;5.318;2023-08-24T07:53:50;30.10;1.40
18392;DHT22;9322;50.932;5.318;2023-08-24T07:56:18;30.70;1.40
18392;DHT22;9322;50.932;5.318;2023-08-24T07:58:44;31.00;1.40
18392;DHT22;9322;50.932;5.318;2023-08-24T08:01:11;31.80;1.40
18392;DHT22;9322;50.932;5.318;2023-08-24T08:03:37;31.80;1.40
18392;DHT22;9322;50.932;5.318;2023-08-24T08:06:02;31.70;1.40
18392;DHT22;9322;50.932;5.318;2023-08-24T08:08:29;30.30;1.40
18392;DHT22;9322;50.932;5.318;2023-08-24T08:10:58;29.90;1.40
18392;DHT22;9322;50.932;5.318;2023-08-24T08:13:28;30.10;1.40
18392;DHT22;9322;50.932;5.318;2023-08-24T08:16:04;30.30;1.40
18392;DHT22;9322;50.932;5.318;2023-08-24T08:18:32;30.50;1.40
18392;DHT22;9322;50.932;5.318;2023-08-24T08:20:58;30.10;1.40
18392;DHT22;9322;50.932;5.318;2023-08-24T08:23:24;30.20;1.40
18392;DHT22;9322;50.932;5.318;2023-08-24T08:25:50;29.90;1.40
18392;DHT22;9322;50.932;5.318;2023-08-24T08:28:16;29.80;1.40
18392;DHT22;9322;50.932;5.318;2023-08-24T08:30:43;29.60;1.40
18392;DHT22;9322;50.932;5.318;2023-08-24T08:33:09;29.60;1.40
18392;DHT22;9322;50.932;5.318;2023-08-24T08:35:35;29.30;1.40
18392;DHT22;9322;50.932;5.318;2023-08-24T08:38:01;29.00;1.40
18392;DHT22;9322;50.932;5.318;2023-08-24T08:40:30;28.70;1.40
18392;DHT22;9322;50.932;5.318;2023-08-24T08:42:57;28.00;1.40
18392;DHT22;9322;50.932;5.318;2023-08-24T08:45:26;28.00;1.40
18392;DHT22;9322;50.932;5.318;2023-08-24T08:47:57;28.20;1.40
18392;DHT22;9322;50.932;5.318;2023-08-24T08:50:23;28.80;1.40
18392;DHT22;9322;50.932;5.318;2023-08-24T08:52:49;29.30;1.40
18392;DHT22;9322;50.932;5.318;2023-08-24T08:55:15;29.50;1.40
18392;DHT22;9322;50.932;5.318;2023-08-24T08:57:41;29.70;1.40
18392;DHT22;9322;50.932;5.318;2023-08-24T09:00:11;29.60;1.40
18392;DHT22;9322;50.932;5.318;2023-08-24T09:02:39;29.50;1.40
18392;DHT22;9322;50.932;5.318;2023-08-24T09:05:06;28.70;1.40
18392;DHT22;9322;50.932;5.318;2023-08-24T09:07:34;28.60;1.40
18392;DHT22;9322;50.932;5.318;2023-08-24T09:09:59;28.50;1.40
18392;DHT22;9322;50.932;5.318;2023-08-24T09:12:25;28.30;1.40
18392;DHT22;9322;50.932;5.318;2023-08-24T09:14:51;28.30;1.40
18392;DHT22;9322;50.932;5.318;2023-08-24T09:17:21;28.40;1.40
18392;DHT22;9322;50.932;5.318;2023-08-24T09:19:50;29.10;1.40
18392;DHT22;9322;50.932;5.318;2023-08-24T09:22:16;29.30;1.40
18392;DHT22;9322;50.932;5.318;2023-08-24T09:24:42;29.60;1.40
18392;DHT22;9322;50.932;5.318;2023-08-24T09:27:18;30.10;1.40
18392;DHT22;9322;50.932;5.318;2023-08-24T09:29:53;30.30;1.40
18392;DHT22;9322;50.932;5.318;2023-08-24T09:32:27;30.90;1.40
18392;DHT22;9322;50.932;5.318;2023-08-24T09:34:54;30.20;1.40
18392;DHT22;9322;50.932;5.318;2023-08-24T09:37:19;30.00;1.40
18392;DHT22;9322;50.932;5.318;2023-08-24T09:39:45;29.70;1.40
18392;DHT22;9322;50.932;5.318;2023-08-24T09:42:12;29.80;1.40
18392;DHT22;9322;50.932;5.318;2023-08-24T09:44:43;30.10;1.40
18392;DHT22;9322;50.932;5.318;2023-08-24T09:47:10;29.90;1.40
18392;DHT22;9322;50.932;5.318;2023-08-24T09:49:38;29.70;1.40
18392;DHT22;9322;50.932;5.318;2023-08-24T09:52:08;29.60;1.40
18392;DHT22;9322;50.932;5.318;2023-08-24T09:54:37;29.40;1.40
18392;DHT22;9322;50.932;5.318;2023-08-24T09:57:05;29.30;1.40
18392;DHT22;9322;50.932;5.318;2023-08-24T09:59:34;29.60;1.40
18392;DHT22;9322;50.932;5.318;2023-08-24T10:02:00;29.60;1.40
18392;DHT22;9322;50.932;5.318;2023-08-24T10:04:33;29.60;1.40
18392;DHT22;9322;50.932;5.318;2023-08-24T10:07:05;29.20;1.40
18392;DHT22;9322;50.932;5.318;2023-08-24T10:09:36;29.30;1.40
18392;DHT22;9322;50.932;5.318;2023-08-24T10:12:04;29.40;1.40
18392;DHT22;9322;50.932;5.318;2023-08-24T10:14:40;29.30;1.40
18392;DHT22;9322;50.932;5.318;2023-08-24T10:17:08;28.90;1.40
18392;DHT22;9322;50.932;5.318;2023-08-24T10:19:36;28.80;1.40
18392;DHT22;9322;50.932;5.318;2023-08-24T10:22:02;28.30;1.40
18392;DHT22;9322;50.932;5.318;2023-08-24T10:24:29;27.70;1.40
18392;DHT22;9322;50.932;5.318;2023-08-24T10:26:57;27.30;1.40
18392;DHT22;9322;50.932;5.318;2023-08-24T10:29:23;26.80;1.40
18392;DHT22;9322;50.932;5.318;2023-08-24T10:31:51;26.60;1.40
18392;DHT22;9322;50.932;5.318;2023-08-24T10:34:17;26.00;1.40
18392;DHT22;9322;50.932;5.318;2023-08-24T10:36:47;25.90;1.40
18392;DHT22;9322;50.932;5.318;2023-08-24T10:39:14;25.70;1.40
18392;DHT22;9322;50.932;5.318;2023-08-24T10:41:51;25.30;1.40
18392;DHT22;9322;50.932;5.318;2023-08-24T10:44:35;25.10;1.40
18392;DHT22;9322;50.932;5.318;2023-08-24T10:47:20;25.20;1.40
18392;DHT22;9322;50.932;5.318;2023-08-24T10:52:21;24.80;1.40
18392;DHT22;9322;50.932;5.318;2023-08-24T10:54:54;24.60;1.40
18392;DHT22;9322;50.932;5.318;2023-08-24T10:57:30;24.20;1.40
18392;DHT22;9322;50.932;5.318;2023-08-24T11:00:06;24.00;1.40
18392;DHT22;9322;50.932;5.318;2023-08-24T11:02:51;23.70;1.40
18392;DHT22;9322;50.932;5.318;2023-08-24T11:05:28;23.70;1.40
18392;DHT22;9322;50.932;5.318;2023-08-24T11:08:04;23.40;1.40
18392;DHT22;9322;50.932;5.318;2023-08-24T11:13:17;23.10;1.40
18392;DHT22;9322;50.932;5.318;2023-08-24T11:15:49;23.00;1.40
18392;DHT22;9322;50.932;5.318;2023-08-24T11:18:25;22.70;1.40
18392;DHT22;9322;50.932;5.318;2023-08-24T11:20:53;22.50;1.40
18392;DHT22;9322;50.932;5.318;2023-08-24T11:23:19;22.30;1.40
18392;DHT22;9322;50.932;5.318;2023-08-24T11:25:46;22.20;1.40
18392;DHT22;9322;50.932;5.318;2023-08-24T11:28:17;22.30;1.40
18392;DHT22;9322;50.932;5.318;2023-08-24T11:30:44;22.50;1.40
18392;DHT22;9322;50.932;5.318;2023-08-24T11:33:11;22.30;1.40
18392;DHT22;9322;50.932;5.318;2023-08-24T11:35:38;22.30;1.40
18392;DHT22;9322;50.932;5.318;2023-08-24T11:38:04;22.40;1.40
18392;DHT22;9322;50.932;5.318;2023-08-24T11:40:30;22.50;1.40
18392;DHT22;9322;50.932;5.318;2023-08-24T11:42:56;22.50;1.40
18392;DHT22;9322;50.932;5.318;2023-08-24T11:45:22;22.70;1.40
18392;DHT22;9322;50.932;5.318;2023-08-24T11:47:49;22.90;1.40
18392;DHT22;9322;50.932;5.318;2023-08-24T11:50:16;23.10;1.40
18392;DHT22;9322;50.932;5.318;2023-08-24T11:52:42;23.30;1.40
18392;DHT22;9322;50.932;5.318;2023-08-24T11:55:08;23.50;1.40
18392;DHT22;9322;50.932;5.318;2023-08-24T11:57:37;23.50;1.40
18392;DHT22;9322;50.932;5.318;2023-08-24T12:00:06;23.50;1.40
18392;DHT22;9322;50.932;5.318;2023-08-24T12:02:33;23.50;1.40
18392;DHT22;9322;50.932;5.318;2023-08-24T12:04:59;23.90;1.40
18392;DHT22;9322;50.932;5.318;2023-08-24T12:07:25;24.10;1.40
18392;DHT22;9322;50.932;5.318;2023-08-24T12:09:54;23.90;1.40
18392;DHT22;9322;50.932;5.318;2023-08-24T12:12:20;23.90;1.40
18392;DHT22;9322;50.932;5.318;2023-08-24T12:14:49;23.90;1.40
18392;DHT22;9322;50.932;5.318;2023-08-24T12:17:17;24.00;1.40
18392;DHT22;9322;50.932;5.318;2023-08-24T12:20:05;24.30;1.40
18392;DHT22;9322;50.932;5.318;2023-08-24T12:22:32;24.30;1.40
18392;DHT22;9322;50.932;5.318;2023-08-24T12:24:57;24.40;1.40
18392;DHT22;9322;50.932;5.318;2023-08-24T12:27:24;24.50;1.40
18392;DHT22;9322;50.932;5.318;2023-08-24T12:29:51;24.60;1.40
18392;DHT22;9322;50.932;5.318;2023-08-24T12:32:18;24.60;1.40
18392;DHT22;9322;50.932;5.318;2023-08-24T12:34:52;24.70;1.40
18392;DHT22;9322;50.932;5.318;2023-08-24T12:37:17;24.50;1.40
18392;DHT22;9322;50.932;5.318;2023-08-24T12:39:43;24.30;1.40
18392;DHT22;9322;50.932;5.318;2023-08-24T12:42:09;24.30;1.40
18392;DHT22;9322;50.932;5.318;2023-08-24T12:44:34;24.20;1.40
18392;DHT22;9322;50.932;5.318;2023-08-24T12:47:02;24.20;1.40
18392;DHT22;9322;50.932;5.318;2023-08-24T12:49:28;23.70;1.40
18392;DHT22;9322;50.932;5.318;2023-08-24T12:51:54;23.50;1.40
18392;DHT22;9322;50.932;5.318;2023-08-24T12:54:20;23.60;1.40
18392;DHT22;9322;50.932;5.318;2023-08-24T12:56:45;23.60;1.40
18392;DHT22;9322;50.932;5.318;2023-08-24T12:59:11;23.50;1.40
18392;DHT22;9322;50.932;5.318;2023-08-24T13:01:37;23.50;1.40
18392;DHT22;9322;50.932;5.318;2023-08-24T13:04:04;23.60;1.40
18392;DHT22;9322;50.932;5.318;2023-08-24T13:06:30;23.60;1.40
18392;DHT22;9322;50.932;5.318;2023-08-24T13:08:55;23.50;1.40
18392;DHT22;9322;50.932;5.318;2023-08-24T13:11:22;23.30;1.40
18392;DHT22;9322;50.932;5.318;2023-08-24T13:13:48;23.10;1.40
18392;DHT22;9322;50.932;5.318;2023-08-24T13:16:14;22.90;1.40
18392;DHT22;9322;50.932;5.318;2023-08-24T13:18:40;22.60;1.40
18392;DHT22;9322;50.932;5.318;2023-08-24T13:21:06;22.20;1.40
18392;DHT22;9322;50.932;5.318;2023-08-24T13:23:31;22.10;1.40
18392;DHT22;9322;50.932;5.318;2023-08-24T13:25:58;21.90;1.40
18392;DHT22;9322;50.932;5.318;2023-08-24T13:28:24;21.70;1.40
18392;DHT22;9322;50.932;5.318;2023-08-24T13:30:50;21.50;1.40
18392;DHT22;9322;50.932;5.318;2023-08-24T13:33:16;21.40;1.40
18392;DHT22;9322;50.932;5.318;2023-08-24T13:35:42;21.50;1.40
18392;DHT22;9322;50.932;5.318;2023-08-24T13:38:08;21.40;1.40
18392;DHT22;9322;50.932;5.318;2023-08-24T13:40:34;21.40;1.40
18392;DHT22;9322;50.932;5.318;2023-08-24T13:42:59;21.30;1.40
18392;DHT22;9322;50.932;5.318;2023-08-24T13:45:25;21.20;1.40
18392;DHT22;9322;50.932;5.318;2023-08-24T13:47:50;20.90;1.40
18392;DHT22;9322;50.932;5.318;2023-08-24T13:50:16;20.70;1.40
18392;DHT22;9322;50.932;5.318;2023-08-24T13:52:42;20.60;1.40
18392;DHT22;9322;50.932;5.318;2023-08-24T13:55:08;20.40;1.40
18392;DHT22;9322;50.932;5.318;2023-08-24T13:57:34;20.30;1.40
18392;DHT22;9322;50.932;5.318;2023-08-24T13:59:59;20.30;1.40
18392;DHT22;9322;50.932;5.318;2023-08-24T14:02:26;20.20;1.40
18392;DHT22;9322;50.932;5.318;2023-08-24T14:04:52;20.10;1.40
18392;DHT22;9322;50.932;5.318;2023-08-24T14:07:17;20.00;1.40
18392;DHT22;9322;50.932;5.318;2023-08-24T14:09:43;19.90;1.40
18392;DHT22;9322;50.932;5.318;2023-08-24T14:12:08;20.00;1.40
18392;DHT22;9322;50.932;5.318;2023-08-24T14:14:34;20.00;1.40
18392;DHT22;9322;50.932;5.318;2023-08-24T14:17:00;19.90;1.40
18392;DHT22;9322;50.932;5.318;2023-08-24T14:19:25;19.80;1.40
18392;DHT22;9322;50.932;5.318;2023-08-24T14:21:52;19.80;1.40
18392;DHT22;9322;50.932;5.318;2023-08-24T14:24:17;19.80;1.40
18392;DHT22;9322;50.932;5.318;2023-08-24T14:26:43;19.60;1.40
18392;DHT22;9322;50.932;5.318;2023-08-24T14:29:13;19.60;1.40
18392;DHT22;9322;50.932;5.318;2023-08-24T14:31:39;19.70;1.40
18392;DHT22;9322;50.932;5.318;2023-08-24T14:34:04;19.60;1.40
18392;DHT22;9322;50.932;5.318;2023-08-24T14:36:30;19.60;1.40
18392;DHT22;9322;50.932;5.318;2023-08-24T14:38:57;19.60;1.40
18392;DHT22;9322;50.932;5.318;2023-08-24T14:41:23;19.60;1.40
18392;DHT22;9322;50.932;5.318;2023-08-24T14:43:49;19.60;1.40
18392;DHT22;9322;50.932;5.318;2023-08-24T14:46:14;19.70;1.40
18392;DHT22;9322;50.932;5.318;2023-08-24T14:48:40;19.70;1.40
18392;DHT22;9322;50.932;5.318;2023-08-24T14:51:06;19.80;1.40
18392;DHT22;9322;50.932;5.318;2023-08-24T14:53:32;19.90;1.40
18392;DHT22;9322;50.932;5.318;2023-08-24T14:55:58;19.90;1.40
18392;DHT22;9322;50.932;5.318;2023-08-24T14:58:25;19.90;1.40
18392;DHT22;9322;50.932;5.318;2023-08-24T15:00:53;19.90;1.40
18392;DHT22;9322;50.932;5.318;2023-08-24T15:03:19;20.00;1.40
18392;DHT22;9322;50.932;5.318;2023-08-24T15:05:46;19.90;1.40
18392;DHT22;9322;50.932;5.318;2023-08-24T15:08:20;19.90;1.40
18392;DHT22;9322;50.932;5.318;2023-08-24T15:10:48;20.00;1.40
18392;DHT22;9322;50.932;5.318;2023-08-24T15:13:14;20.00;1.40
18392;DHT22;9322;50.932;5.318;2023-08-24T15:15:39;20.10;1.40
18392;DHT22;9322;50.932;5.318;2023-08-24T15:18:05;20.20;1.40
18392;DHT22;9322;50.932;5.318;2023-08-24T15:20:31;20.30;1.40
18392;DHT22;9322;50.932;5.318;2023-08-24T15:22:58;20.40;1.40
18392;DHT22;9322;50.932;5.318;2023-08-24T15:25:24;20.30;1.40
18392;DHT22;9322;50.932;5.318;2023-08-24T15:27:50;20.50;1.40
18392;DHT22;9322;50.932;5.318;2023-08-24T15:30:16;20.70;1.40
18392;DHT22;9322;50.932;5.318;2023-08-24T15:32:41;20.90;1.40
18392;DHT22;9322;50.932;5.318;2023-08-24T15:35:07;20.90;1.40
18392;DHT22;9322;50.932;5.318;2023-08-24T15:37:33;21.00;1.40
18392;DHT22;9322;50.932;5.318;2023-08-24T15:39:59;21.10;1.40
18392;DHT22;9322;50.932;5.318;2023-08-24T15:42:26;21.20;1.40
18392;DHT22;9322;50.932;5.318;2023-08-24T15:44:51;21.30;1.40
18392;DHT22;9322;50.932;5.318;2023-08-24T15:47:17;21.40;1.40
18392;DHT22;9322;50.932;5.318;2023-08-24T15:49:43;21.50;1.40
18392;DHT22;9322;50.932;5.318;2023-08-24T15:52:08;21.60;1.40
18392;DHT22;9322;50.932;5.318;2023-08-24T15:54:34;21.80;1.40
18392;DHT22;9322;50.932;5.318;2023-08-24T15:56:59;21.80;1.40
18392;DHT22;9322;50.932;5.318;2023-08-24T15:59:25;21.80;1.40
18392;DHT22;9322;50.932;5.318;2023-08-24T16:01:51;21.90;1.40
18392;DHT22;9322;50.932;5.318;2023-08-24T16:04:17;21.90;1.40
18392;DHT22;9322;50.932;5.318;2023-08-24T16:06:43;21.90;1.40
18392;DHT22;9322;50.932;5.318;2023-08-24T16:09:09;22.10;1.40
18392;DHT22;9322;50.932;5.318;2023-08-24T16:11:35;22.20;1.40